sensor_id;sensor_type;location;lat;lon;timestamp;P1;durP1;ratioP1;P2;durP2;ratioP2
74177;SDS011;62540;48.456;-4.456;2022-12-20T00:01:11;5.50;;;4.00;;
74177;SDS011;62540;48.456;-4.456;2022-12-20T00:03:38;7.75;;;4.75;;
74177;SDS011;62540;48.456;-4.456;2022-12-20T00:06:04;6.25;;;4.00;;
74177;SDS011;62540;48.456;-4.456;2022-12-20T00:08:30;6.50;;;5.75;;
74177;SDS011;62540;48.456;-4.456;2022-12-20T00:10:58;5.50;;;4.25;;
74177;SDS011;62540;48.456;-4.456;2022-12-20T00:13:24;4.75;;;4.00;;
74177;SDS011;62540;48.456;-4.456;2022-12-20T00:15:50;9.50;;;6.00;;
74177;SDS011;62540;48.456;-4.456;2022-12-20T00:18:15;6.25;;;5.00;;
74177;SDS011;62540;48.456;-4.456;2022-12-20T00:20:40;6.25;;;4.25;;
74177;SDS011;62540;48.456;-4.456;2022-12-20T00:23:06;2.25;;;2.00;;
74177;SDS011;62540;48.456;-4.456;2022-12-20T00:25:31;4.25;;;3.00;;
74177;SDS011;62540;48.456;-4.456;2022-12-20T00:27:57;9.75;;;6.25;;
74177;SDS011;62540;48.456;-4.456;2022-12-20T00:30:22;4.50;;;2.00;;
74177;SDS011;62540;48.456;-4.456;2022-12-20T00:32:47;9.25;;;5.00;;
74177;SDS011;62540;48.456;-4.456;2022-12-20T00:35:13;9.50;;;5.25;;
74177;SDS011;62540;48.456;-4.456;2022-12-20T00:37:38;7.75;;;5.25;;
74177;SDS011;62540;48.456;-4.456;2022-12-20T00:40:04;8.75;;;5.75;;
74177;SDS011;62540;48.456;-4.456;2022-12-20T00:42:31;9.75;;;4.50;;
74177;SDS011;62540;48.456;-4.456;2022-12-20T00:44:57;2.00;;;1.00;;
74177;SDS011;62540;48.456;-4.456;2022-12-20T00:47:22;6.00;;;4.00;;
74177;SDS011;62540;48.456;-4.456;2022-12-20T00:49:47;3.25;;;3.25;;
74177;SDS011;62540;48.456;-4.456;2022-12-20T00:52:13;6.00;;;5.00;;
74177;SDS011;62540;48.456;-4.456;2022-12-20T00:54:38;5.00;;;3.00;;
74177;SDS011;62540;48.456;-4.456;2022-12-20T00:57:04;4.50;;;4.00;;
74177;SDS011;62540;48.456;-4.456;2022-12-20T00:59:29;3.75;;;2.00;;
74177;SDS011;62540;48.456;-4.456;2022-12-20T01:01:55;4.00;;;3.25;;
74177;SDS011;62540;48.456;-4.456;2022-12-20T01:04:20;5.50;;;2.00;;
74177;SDS011;62540;48.456;-4.456;2022-12-20T01:06:45;4.75;;;4.00;;
74177;SDS011;62540;48.456;-4.456;2022-12-20T01:09:11;4.75;;;4.00;;
74177;SDS011;62540;48.456;-4.456;2022-12-20T01:11:37;4.00;;;3.00;;
74177;SDS011;62540;48.456;-4.456;2022-12-20T01:14:09;3.75;;;3.00;;
74177;SDS011;62540;48.456;-4.456;2022-12-20T01:16:37;6.00;;;3.00;;
74177;SDS011;62540;48.456;-4.456;2022-12-20T01:19:05;6.00;;;3.75;;
74177;SDS011;62540;48.456;-4.456;2022-12-20T01:21:32;5.00;;;2.25;;
74177;SDS011;62540;48.456;-4.456;2022-12-20T01:23:58;5.75;;;3.00;;
74177;SDS011;62540;48.456;-4.456;2022-12-20T01:26:24;6.00;;;4.75;;
74177;SDS011;62540;48.456;-4.456;2022-12-20T01:28:52;4.25;;;3.00;;
74177;SDS011;62540;48.456;-4.456;2022-12-20T01:31:22;4.75;;;2.50;;
74177;SDS011;62540;48.456;-4.456;2022-12-20T01:33:49;3.00;;;1.00;;
74177;SDS011;62540;48.456;-4.456;2022-12-20T01:36:16;5.75;;;3.00;;
74177;SDS011;62540;48.456;-4.456;2022-12-20T01:38:44;5.50;;;3.00;;
74177;SDS011;62540;48.456;-4.456;2022-12-20T01:41:19;5.25;;;4.50;;
74177;SDS011;62540;48.456;-4.456;2022-12-20T01:43:50;5.50;;;4.00;;
74177;SDS011;62540;48.456;-4.456;2022-12-20T01:46:22;4.75;;;4.25;;
74177;SDS011;62540;48.456;-4.456;2022-12-20T01:48:53;6.00;;;4.75;;
74177;SDS011;62540;48.456;-4.456;2022-12-20T01:51:33;4.50;;;2.00;;
74177;SDS011;62540;48.456;-4.456;2022-12-20T01:54:04;11.00;;;5.75;;
74177;SDS011;62540;48.456;-4.456;2022-12-20T01:56:52;5.75;;;4.00;;
74177;SDS011;62540;48.456;-4.456;2022-12-20T01:59:21;5.50;;;3.00;;
74177;SDS011;62540;48.456;-4.456;2022-12-20T02:01:47;4.50;;;3.50;;
74177;SDS011;62540;48.456;-4.456;2022-12-20T02:04:13;8.75;;;5.00;;
74177;SDS011;62540;48.456;-4.456;2022-12-20T02:06:38;4.50;;;4.25;;
74177;SDS011;62540;48.456;-4.456;2022-12-20T02:09:04;7.50;;;4.75;;
74177;SDS011;62540;48.456;-4.456;2022-12-20T02:16:34;3.00;;;1.75;;
74177;SDS011;62540;48.456;-4.456;2022-12-20T02:22:08;2.00;;;0.75;;
74177;SDS011;62540;48.456;-4.456;2022-12-20T02:30:19;0.50;;;0.00;;
74177;SDS011;62540;48.456;-4.456;2022-12-20T02:33:02;0.00;;;0.00;;
74177;SDS011;62540;48.456;-4.456;2022-12-20T02:35:30;0.75;;;0.00;;
74177;SDS011;62540;48.456;-4.456;2022-12-20T02:37:58;0.00;;;0.00;;
74177;SDS011;62540;48.456;-4.456;2022-12-20T02:40:26;0.50;;;0.00;;
74177;SDS011;62540;48.456;-4.456;2022-12-20T02:43:00;0.25;;;0.00;;
74177;SDS011;62540;48.456;-4.456;2022-12-20T02:45:30;0.75;;;0.00;;
74177;SDS011;62540;48.456;-4.456;2022-12-20T02:48:16;0.00;;;0.00;;
74177;SDS011;62540;48.456;-4.456;2022-12-20T02:50:47;0.50;;;0.00;;
74177;SDS011;62540;48.456;-4.456;2022-12-20T02:53:16;0.75;;;0.00;;
74177;SDS011;62540;48.456;-4.456;2022-12-20T02:55:47;0.25;;;0.00;;
74177;SDS011;62540;48.456;-4.456;2022-12-20T02:58:25;0.00;;;0.00;;
74177;SDS011;62540;48.456;-4.456;2022-12-20T03:00:58;0.00;;;0.00;;
74177;SDS011;62540;48.456;-4.456;2022-12-20T03:03:33;1.00;;;0.00;;
74177;SDS011;62540;48.456;-4.456;2022-12-20T03:05:59;0.75;;;0.75;;
74177;SDS011;62540;48.456;-4.456;2022-12-20T03:08:25;0.00;;;0.00;;
74177;SDS011;62540;48.456;-4.456;2022-12-20T03:10:51;1.00;;;0.00;;
74177;SDS011;62540;48.456;-4.456;2022-12-20T03:13:19;0.50;;;0.00;;
74177;SDS011;62540;48.456;-4.456;2022-12-20T03:15:45;0.00;;;0.00;;
74177;SDS011;62540;48.456;-4.456;2022-12-20T03:18:11;0.25;;;0.00;;
74177;SDS011;62540;48.456;-4.456;2022-12-20T03:20:37;1.00;;;0.00;;
74177;SDS011;62540;48.456;-4.456;2022-12-20T03:23:02;0.00;;;0.00;;
74177;SDS011;62540;48.456;-4.456;2022-12-20T03:25:28;0.00;;;0.00;;
74177;SDS011;62540;48.456;-4.456;2022-12-20T03:27:53;0.00;;;0.00;;
74177;SDS011;62540;48.456;-4.456;2022-12-20T03:30:19;0.75;;;0.00;;
74177;SDS011;62540;48.456;-4.456;2022-12-20T03:32:44;0.75;;;0.00;;
74177;SDS011;62540;48.456;-4.456;2022-12-20T03:35:10;1.75;;;0.00;;
74177;SDS011;62540;48.456;-4.456;2022-12-20T03:37:35;0.00;;;0.00;;
74177;SDS011;62540;48.456;-4.456;2022-12-20T03:40:01;0.50;;;0.00;;
74177;SDS011;62540;48.456;-4.456;2022-12-20T03:42:27;0.00;;;0.00;;
74177;SDS011;62540;48.456;-4.456;2022-12-20T03:44:52;0.50;;;0.00;;
74177;SDS011;62540;48.456;-4.456;2022-12-20T03:47:17;0.50;;;0.00;;
74177;SDS011;62540;48.456;-4.456;2022-12-20T03:49:43;0.00;;;0.00;;
74177;SDS011;62540;48.456;-4.456;2022-12-20T03:52:10;0.00;;;0.00;;
74177;SDS011;62540;48.456;-4.456;2022-12-20T03:54:36;0.50;;;0.50;;
74177;SDS011;62540;48.456;-4.456;2022-12-20T03:57:02;1.00;;;0.25;;
74177;SDS011;62540;48.456;-4.456;2022-12-20T03:59:27;1.00;;;0.00;;
74177;SDS011;62540;48.456;-4.456;2022-12-20T04:01:53;1.00;;;0.25;;
74177;SDS011;62540;48.456;-4.456;2022-12-20T04:04:18;0.50;;;0.00;;
74177;SDS011;62540;48.456;-4.456;2022-12-20T04:06:44;0.00;;;0.00;;
74177;SDS011;62540;48.456;-4.456;2022-12-20T04:09:09;2.00;;;0.00;;
74177;SDS011;62540;48.456;-4.456;2022-12-20T04:11:34;1.00;;;0.00;;
74177;SDS011;62540;48.456;-4.456;2022-12-20T04:14:00;0.50;;;0.00;;
74177;SDS011;62540;48.456;-4.456;2022-12-20T04:16:26;1.00;;;0.00;;
74177;SDS011;62540;48.456;-4.456;2022-12-20T04:18:53;1.00;;;1.00;;
74177;SDS011;62540;48.456;-4.456;2022-12-20T04:21:26;1.00;;;0.00;;
74177;SDS011;62540;48.456;-4.456;2022-12-20T04:23:53;1.00;;;0.00;;
74177;SDS011;62540;48.456;-4.456;2022-12-20T04:26:19;0.50;;;0.00;;
74177;SDS011;62540;48.456;-4.456;2022-12-20T04:28:45;1.00;;;1.00;;
74177;SDS011;62540;48.456;-4.456;2022-12-20T04:31:11;2.00;;;0.00;;
74177;SDS011;62540;48.456;-4.456;2022-12-20T04:33:36;0.00;;;0.00;;
74177;SDS011;62540;48.456;-4.456;2022-12-20T04:36:02;0.75;;;0.50;;
74177;SDS011;62540;48.456;-4.456;2022-12-20T04:38:28;0.75;;;0.00;;
74177;SDS011;62540;48.456;-4.456;2022-12-20T04:40:54;0.00;;;0.00;;
74177;SDS011;62540;48.456;-4.456;2022-12-20T04:43:20;0.00;;;0.00;;
74177;SDS011;62540;48.456;-4.456;2022-12-20T04:45:47;0.50;;;0.00;;
74177;SDS011;62540;48.456;-4.456;2022-12-20T04:48:14;0.50;;;0.00;;
74177;SDS011;62540;48.456;-4.456;2022-12-20T04:50:40;0.00;;;0.00;;
74177;SDS011;62540;48.456;-4.456;2022-12-20T04:53:05;0.00;;;0.00;;
74177;SDS011;62540;48.456;-4.456;2022-12-20T04:55:49;1.00;;;0.00;;
74177;SDS011;62540;48.456;-4.456;2022-12-20T04:58:15;0.00;;;0.00;;
74177;SDS011;62540;48.456;-4.456;2022-12-20T05:00:41;0.75;;;0.00;;
74177;SDS011;62540;48.456;-4.456;2022-12-20T05:03:06;0.00;;;0.00;;
74177;SDS011;62540;48.456;-4.456;2022-12-20T05:05:32;0.00;;;0.00;;
74177;SDS011;62540;48.456;-4.456;2022-12-20T05:07:57;0.00;;;0.00;;
74177;SDS011;62540;48.456;-4.456;2022-12-20T05:10:23;0.00;;;0.00;;
74177;SDS011;62540;48.456;-4.456;2022-12-20T05:12:48;0.00;;;0.00;;
74177;SDS011;62540;48.456;-4.456;2022-12-20T05:15:14;0.00;;;0.00;;
74177;SDS011;62540;48.456;-4.456;2022-12-20T05:17:39;0.00;;;0.00;;
74177;SDS011;62540;48.456;-4.456;2022-12-20T05:20:05;0.00;;;0.00;;
74177;SDS011;62540;48.456;-4.456;2022-12-20T05:22:31;0.00;;;0.00;;
74177;SDS011;62540;48.456;-4.456;2022-12-20T05:25:15;0.00;;;0.00;;
74177;SDS011;62540;48.456;-4.456;2022-12-20T05:27:59;0.00;;;0.00;;
74177;SDS011;62540;48.456;-4.456;2022-12-20T05:30:25;0.00;;;0.00;;
74177;SDS011;62540;48.456;-4.456;2022-12-20T05:32:51;0.00;;;0.00;;
74177;SDS011;62540;48.456;-4.456;2022-12-20T05:35:16;0.00;;;0.00;;
74177;SDS011;62540;48.456;-4.456;2022-12-20T05:37:42;0.00;;;0.00;;
74177;SDS011;62540;48.456;-4.456;2022-12-20T05:40:07;0.00;;;0.00;;
74177;SDS011;62540;48.456;-4.456;2022-12-20T05:42:33;1.00;;;0.00;;
74177;SDS011;62540;48.456;-4.456;2022-12-20T05:44:59;0.00;;;0.00;;
74177;SDS011;62540;48.456;-4.456;2022-12-20T05:47:25;0.00;;;0.00;;
74177;SDS011;62540;48.456;-4.456;2022-12-20T05:49:51;0.00;;;0.00;;
74177;SDS011;62540;48.456;-4.456;2022-12-20T05:52:16;1.00;;;1.00;;
74177;SDS011;62540;48.456;-4.456;2022-12-20T05:54:41;1.00;;;1.00;;
74177;SDS011;62540;48.456;-4.456;2022-12-20T05:57:07;0.50;;;0.50;;
74177;SDS011;62540;48.456;-4.456;2022-12-20T05:59:32;1.75;;;0.75;;
74177;SDS011;62540;48.456;-4.456;2022-12-20T06:01:57;0.50;;;0.00;;
74177;SDS011;62540;48.456;-4.456;2022-12-20T06:04:23;1.50;;;0.75;;
74177;SDS011;62540;48.456;-4.456;2022-12-20T06:06:48;2.00;;;1.00;;
74177;SDS011;62540;48.456;-4.456;2022-12-20T06:09:14;2.75;;;1.00;;
74177;SDS011;62540;48.456;-4.456;2022-12-20T06:11:39;1.00;;;1.00;;
74177;SDS011;62540;48.456;-4.456;2022-12-20T06:14:05;1.00;;;1.00;;
74177;SDS011;62540;48.456;-4.456;2022-12-20T06:16:30;2.50;;;2.00;;
74177;SDS011;62540;48.456;-4.456;2022-12-20T06:18:56;1.00;;;1.00;;
74177;SDS011;62540;48.456;-4.456;2022-12-20T06:21:21;2.00;;;2.00;;
74177;SDS011;62540;48.456;-4.456;2022-12-20T06:23:47;1.00;;;1.00;;
74177;SDS011;62540;48.456;-4.456;2022-12-20T06:26:13;1.00;;;1.00;;
74177;SDS011;62540;48.456;-4.456;2022-12-20T06:28:39;3.00;;;3.00;;
74177;SDS011;62540;48.456;-4.456;2022-12-20T06:31:07;1.25;;;0.75;;
74177;SDS011;62540;48.456;-4.456;2022-12-20T06:33:34;1.00;;;1.00;;
74177;SDS011;62540;48.456;-4.456;2022-12-20T06:36:00;2.00;;;1.75;;
74177;SDS011;62540;48.456;-4.456;2022-12-20T06:38:25;2.00;;;1.50;;
74177;SDS011;62540;48.456;-4.456;2022-12-20T06:40:51;3.00;;;2.00;;
74177;SDS011;62540;48.456;-4.456;2022-12-20T06:43:16;1.50;;;1.00;;
74177;SDS011;62540;48.456;-4.456;2022-12-20T06:45:42;3.25;;;2.00;;
74177;SDS011;62540;48.456;-4.456;2022-12-20T06:48:07;3.00;;;2.00;;
74177;SDS011;62540;48.456;-4.456;2022-12-20T06:50:33;2.00;;;1.75;;
74177;SDS011;62540;48.456;-4.456;2022-12-20T06:52:58;4.00;;;3.00;;
74177;SDS011;62540;48.456;-4.456;2022-12-20T06:55:24;9.00;;;8.25;;
74177;SDS011;62540;48.456;-4.456;2022-12-20T06:57:49;24.50;;;16.75;;
74177;SDS011;62540;48.456;-4.456;2022-12-20T07:00:15;22.25;;;18.75;;
74177;SDS011;62540;48.456;-4.456;2022-12-20T07:02:41;42.00;;;33.25;;
74177;SDS011;62540;48.456;-4.456;2022-12-20T07:05:06;48.50;;;38.50;;
74177;SDS011;62540;48.456;-4.456;2022-12-20T07:07:32;34.50;;;26.25;;
74177;SDS011;62540;48.456;-4.456;2022-12-20T07:09:57;29.25;;;28.25;;
74177;SDS011;62540;48.456;-4.456;2022-12-20T07:12:23;20.25;;;19.00;;
74177;SDS011;62540;48.456;-4.456;2022-12-20T07:14:49;13.25;;;10.75;;
74177;SDS011;62540;48.456;-4.456;2022-12-20T07:17:14;9.50;;;8.50;;
74177;SDS011;62540;48.456;-4.456;2022-12-20T07:19:40;8.75;;;8.25;;
74177;SDS011;62540;48.456;-4.456;2022-12-20T07:22:06;7.25;;;6.50;;
74177;SDS011;62540;48.456;-4.456;2022-12-20T07:24:32;6.00;;;6.00;;
74177;SDS011;62540;48.456;-4.456;2022-12-20T07:26:57;5.25;;;4.50;;
74177;SDS011;62540;48.456;-4.456;2022-12-20T07:29:23;4.00;;;3.00;;
74177;SDS011;62540;48.456;-4.456;2022-12-20T07:31:50;2.00;;;2.00;;
74177;SDS011;62540;48.456;-4.456;2022-12-20T07:34:15;1.75;;;1.75;;
74177;SDS011;62540;48.456;-4.456;2022-12-20T07:36:41;1.50;;;1.00;;
74177;SDS011;62540;48.456;-4.456;2022-12-20T07:39:06;2.00;;;1.00;;
74177;SDS011;62540;48.456;-4.456;2022-12-20T07:41:32;0.00;;;0.00;;
74177;SDS011;62540;48.456;-4.456;2022-12-20T07:43:57;0.75;;;0.00;;
74177;SDS011;62540;48.456;-4.456;2022-12-20T07:46:23;0.00;;;0.00;;
74177;SDS011;62540;48.456;-4.456;2022-12-20T07:48:48;2.00;;;1.00;;
74177;SDS011;62540;48.456;-4.456;2022-12-20T07:51:15;3.00;;;2.25;;
74177;SDS011;62540;48.456;-4.456;2022-12-20T07:53:49;4.00;;;3.75;;
74177;SDS011;62540;48.456;-4.456;2022-12-20T07:56:19;5.50;;;5.25;;
74177;SDS011;62540;48.456;-4.456;2022-12-20T07:58:46;7.00;;;6.00;;
74177;SDS011;62540;48.456;-4.456;2022-12-20T08:01:15;7.25;;;6.25;;
74177;SDS011;62540;48.456;-4.456;2022-12-20T08:03:44;6.50;;;6.00;;
74177;SDS011;62540;48.456;-4.456;2022-12-20T08:06:14;6.25;;;5.25;;
74177;SDS011;62540;48.456;-4.456;2022-12-20T08:08:42;7.00;;;4.75;;
74177;SDS011;62540;48.456;-4.456;2022-12-20T08:11:11;5.00;;;4.75;;
74177;SDS011;62540;48.456;-4.456;2022-12-20T08:13:37;4.75;;;4.75;;
74177;SDS011;62540;48.456;-4.456;2022-12-20T08:16:03;4.00;;;3.00;;
74177;SDS011;62540;48.456;-4.456;2022-12-20T08:18:29;4.75;;;3.00;;
74177;SDS011;62540;48.456;-4.456;2022-12-20T08:20:55;5.50;;;3.75;;
74177;SDS011;62540;48.456;-4.456;2022-12-20T08:23:21;3.00;;;3.00;;
74177;SDS011;62540;48.456;-4.456;2022-12-20T08:25:47;7.75;;;7.00;;
74177;SDS011;62540;48.456;-4.456;2022-12-20T08:28:12;7.00;;;6.25;;
74177;SDS011;62540;48.456;-4.456;2022-12-20T08:30:37;5.25;;;5.25;;
74177;SDS011;62540;48.456;-4.456;2022-12-20T08:33:03;6.25;;;5.50;;
74177;SDS011;62540;48.456;-4.456;2022-12-20T08:35:29;5.50;;;5.25;;
74177;SDS011;62540;48.456;-4.456;2022-12-20T08:37:55;6.00;;;5.00;;
74177;SDS011;62540;48.456;-4.456;2022-12-20T08:40:20;5.50;;;5.00;;
74177;SDS011;62540;48.456;-4.456;2022-12-20T08:42:46;5.00;;;5.00;;
74177;SDS011;62540;48.456;-4.456;2022-12-20T08:45:12;5.25;;;5.25;;
74177;SDS011;62540;48.456;-4.456;2022-12-20T08:47:37;6.75;;;5.50;;
74177;SDS011;62540;48.456;-4.456;2022-12-20T08:50:03;5.75;;;5.00;;
74177;SDS011;62540;48.456;-4.456;2022-12-20T08:52:29;2.00;;;0.50;;
74177;SDS011;62540;48.456;-4.456;2022-12-20T08:54:55;4.00;;;3.50;;
74177;SDS011;62540;48.456;-4.456;2022-12-20T08:57:20;3.25;;;3.25;;
74177;SDS011;62540;48.456;-4.456;2022-12-20T08:59:46;5.50;;;4.25;;
74177;SDS011;62540;48.456;-4.456;2022-12-20T09:02:12;4.00;;;3.75;;
74177;SDS011;62540;48.456;-4.456;2022-12-20T09:04:37;7.00;;;4.50;;
74177;SDS011;62540;48.456;-4.456;2022-12-20T09:07:02;5.00;;;4.25;;
74177;SDS011;62540;48.456;-4.456;2022-12-20T09:09:28;6.00;;;5.00;;
74177;SDS011;62540;48.456;-4.456;2022-12-20T09:11:53;7.75;;;7.25;;
74177;SDS011;62540;48.456;-4.456;2022-12-20T09:14:19;8.00;;;7.00;;
74177;SDS011;62540;48.456;-4.456;2022-12-20T09:16:45;9.50;;;8.00;;
74177;SDS011;62540;48.456;-4.456;2022-12-20T09:19:11;9.25;;;8.00;;
74177;SDS011;62540;48.456;-4.456;2022-12-20T09:21:38;9.75;;;8.25;;
74177;SDS011;62540;48.456;-4.456;2022-12-20T09:24:03;10.00;;;9.50;;
74177;SDS011;62540;48.456;-4.456;2022-12-20T09:26:30;6.75;;;6.75;;
74177;SDS011;62540;48.456;-4.456;2022-12-20T09:28:56;11.50;;;8.00;;
74177;SDS011;62540;48.456;-4.456;2022-12-20T09:31:22;10.75;;;9.50;;
74177;SDS011;62540;48.456;-4.456;2022-12-20T09:33:51;8.25;;;7.75;;
74177;SDS011;62540;48.456;-4.456;2022-12-20T09:36:18;6.50;;;5.50;;
74177;SDS011;62540;48.456;-4.456;2022-12-20T09:38:45;6.00;;;6.00;;
74177;SDS011;62540;48.456;-4.456;2022-12-20T09:41:16;8.00;;;5.50;;
74177;SDS011;62540;48.456;-4.456;2022-12-20T09:43:50;5.50;;;3.50;;
74177;SDS011;62540;48.456;-4.456;2022-12-20T09:46:16;5.00;;;4.00;;
74177;SDS011;62540;48.456;-4.456;2022-12-20T09:48:42;3.00;;;3.00;;
74177;SDS011;62540;48.456;-4.456;2022-12-20T09:51:13;1.75;;;1.75;;
74177;SDS011;62540;48.456;-4.456;2022-12-20T09:57:04;3.00;;;2.00;;
74177;SDS011;62540;48.456;-4.456;2022-12-20T09:59:39;2.75;;;2.75;;
74177;SDS011;62540;48.456;-4.456;2022-12-20T10:02:08;3.00;;;3.00;;
74177;SDS011;62540;48.456;-4.456;2022-12-20T10:04:36;3.75;;;3.75;;
74177;SDS011;62540;48.456;-4.456;2022-12-20T10:24:02;1.00;;;1.00;;
74177;SDS011;62540;48.456;-4.456;2022-12-20T10:26:34;2.00;;;2.00;;
74177;SDS011;62540;48.456;-4.456;2022-12-20T10:28:59;1.00;;;1.00;;
74177;SDS011;62540;48.456;-4.456;2022-12-20T10:31:25;0.75;;;0.75;;
74177;SDS011;62540;48.456;-4.456;2022-12-20T10:33:51;1.00;;;1.00;;
74177;SDS011;62540;48.456;-4.456;2022-12-20T10:39:08;0.25;;;0.00;;
74177;SDS011;62540;48.456;-4.456;2022-12-20T10:46:48;1.00;;;0.75;;
74177;SDS011;62540;48.456;-4.456;2022-12-20T10:54:33;4.00;;;3.00;;
74177;SDS011;62540;48.456;-4.456;2022-12-20T10:57:24;4.50;;;3.50;;
74177;SDS011;62540;48.456;-4.456;2022-12-20T10:59:57;5.00;;;4.00;;
74177;SDS011;62540;48.456;-4.456;2022-12-20T11:04:59;8.00;;;6.00;;
74177;SDS011;62540;48.456;-4.456;2022-12-20T11:08:00;5.00;;;3.50;;
74177;SDS011;62540;48.456;-4.456;2022-12-20T11:10:31;3.75;;;2.75;;
74177;SDS011;62540;48.456;-4.456;2022-12-20T11:13:00;2.00;;;2.00;;
74177;SDS011;62540;48.456;-4.456;2022-12-20T11:15:31;1.25;;;0.50;;
74177;SDS011;62540;48.456;-4.456;2022-12-20T11:18:09;0.50;;;0.50;;
74177;SDS011;62540;48.456;-4.456;2022-12-20T11:20:41;1.50;;;0.75;;
74177;SDS011;62540;48.456;-4.456;2022-12-20T11:23:57;2.50;;;1.50;;
74177;SDS011;62540;48.456;-4.456;2022-12-20T11:31:15;0.50;;;0.50;;
74177;SDS011;62540;48.456;-4.456;2022-12-20T11:36:28;0.00;;;0.00;;
74177;SDS011;62540;48.456;-4.456;2022-12-20T11:41:56;0.00;;;0.00;;
74177;SDS011;62540;48.456;-4.456;2022-12-20T11:53:01;0.75;;;0.25;;
74177;SDS011;62540;48.456;-4.456;2022-12-20T11:55:34;0.25;;;0.25;;
74177;SDS011;62540;48.456;-4.456;2022-12-20T11:58:17;1.00;;;1.00;;
74177;SDS011;62540;48.456;-4.456;2022-12-20T12:03:33;1.00;;;0.00;;
74177;SDS011;62540;48.456;-4.456;2022-12-20T12:06:35;0.00;;;0.00;;
74177;SDS011;62540;48.456;-4.456;2022-12-20T12:09:07;0.50;;;0.00;;
74177;SDS011;62540;48.456;-4.456;2022-12-20T12:11:50;0.00;;;0.00;;
74177;SDS011;62540;48.456;-4.456;2022-12-20T12:14:26;0.75;;;0.00;;
74177;SDS011;62540;48.456;-4.456;2022-12-20T12:16:56;1.75;;;0.00;;
74177;SDS011;62540;48.456;-4.456;2022-12-20T12:19:31;0.75;;;0.00;;
74177;SDS011;62540;48.456;-4.456;2022-12-20T12:22:01;0.00;;;0.00;;
74177;SDS011;62540;48.456;-4.456;2022-12-20T12:24:35;0.50;;;0.00;;
74177;SDS011;62540;48.456;-4.456;2022-12-20T12:27:06;1.25;;;0.75;;
74177;SDS011;62540;48.456;-4.456;2022-12-20T12:29:39;0.00;;;0.00;;
74177;SDS011;62540;48.456;-4.456;2022-12-20T12:32:07;1.25;;;0.00;;
74177;SDS011;62540;48.456;-4.456;2022-12-20T12:40:38;0.25;;;0.00;;
74177;SDS011;62540;48.456;-4.456;2022-12-20T12:46:00;0.75;;;0.00;;
74177;SDS011;62540;48.456;-4.456;2022-12-20T12:48:42;1.00;;;0.00;;
74177;SDS011;62540;48.456;-4.456;2022-12-20T12:51:15;0.00;;;0.00;;
74177;SDS011;62540;48.456;-4.456;2022-12-20T12:53:50;0.75;;;0.75;;
74177;SDS011;62540;48.456;-4.456;2022-12-20T12:56:38;1.00;;;0.00;;
74177;SDS011;62540;48.456;-4.456;2022-12-20T13:01:46;0.00;;;0.00;;
74177;SDS011;62540;48.456;-4.456;2022-12-20T13:04:27;1.25;;;0.00;;
74177;SDS011;62540;48.456;-4.456;2022-12-20T13:06:58;0.00;;;0.00;;
74177;SDS011;62540;48.456;-4.456;2022-12-20T13:11:49;1.75;;;0.00;;
74177;SDS011;62540;48.456;-4.456;2022-12-20T13:21:54;0.00;;;0.00;;
74177;SDS011;62540;48.456;-4.456;2022-12-20T13:24:55;0.75;;;0.00;;
74177;SDS011;62540;48.456;-4.456;2022-12-20T13:27:49;1.25;;;0.00;;
74177;SDS011;62540;48.456;-4.456;2022-12-20T13:37:55;0.25;;;0.00;;
74177;SDS011;62540;48.456;-4.456;2022-12-20T13:40:43;0.75;;;0.00;;
74177;SDS011;62540;48.456;-4.456;2022-12-20T13:46:37;0.00;;;0.00;;
74177;SDS011;62540;48.456;-4.456;2022-12-20T13:51:19;0.00;;;0.00;;
74177;SDS011;62540;48.456;-4.456;2022-12-20T13:59:11;0.75;;;0.50;;
74177;SDS011;62540;48.456;-4.456;2022-12-20T14:01:49;1.50;;;0.00;;
74177;SDS011;62540;48.456;-4.456;2022-12-20T14:04:18;0.00;;;0.00;;
74177;SDS011;62540;48.456;-4.456;2022-12-20T14:06:55;0.00;;;0.00;;
74177;SDS011;62540;48.456;-4.456;2022-12-20T14:12:03;0.25;;;0.00;;
74177;SDS011;62540;48.456;-4.456;2022-12-20T14:14:47;0.75;;;0.00;;
74177;SDS011;62540;48.456;-4.456;2022-12-20T14:22:34;1.00;;;0.50;;
74177;SDS011;62540;48.456;-4.456;2022-12-20T14:25:01;0.50;;;0.00;;
74177;SDS011;62540;48.456;-4.456;2022-12-20T14:27:30;0.00;;;0.00;;
74177;SDS011;62540;48.456;-4.456;2022-12-20T14:29:59;0.00;;;0.00;;
74177;SDS011;62540;48.456;-4.456;2022-12-20T14:32:25;0.25;;;0.00;;
74177;SDS011;62540;48.456;-4.456;2022-12-20T14:34:50;0.00;;;0.00;;
74177;SDS011;62540;48.456;-4.456;2022-12-20T14:37:33;2.25;;;0.75;;
74177;SDS011;62540;48.456;-4.456;2022-12-20T14:40:23;0.00;;;0.00;;
74177;SDS011;62540;48.456;-4.456;2022-12-20T14:42:48;0.00;;;0.00;;
74177;SDS011;62540;48.456;-4.456;2022-12-20T14:47:47;0.00;;;0.00;;
74177;SDS011;62540;48.456;-4.456;2022-12-20T14:50:17;0.00;;;0.00;;
74177;SDS011;62540;48.456;-4.456;2022-12-20T14:52:53;0.00;;;0.00;;
74177;SDS011;62540;48.456;-4.456;2022-12-20T14:55:24;0.00;;;0.00;;
74177;SDS011;62540;48.456;-4.456;2022-12-20T14:57:56;1.75;;;0.75;;
74177;SDS011;62540;48.456;-4.456;2022-12-20T15:00:23;0.75;;;0.00;;
74177;SDS011;62540;48.456;-4.456;2022-12-20T15:05:34;0.00;;;0.00;;
74177;SDS011;62540;48.456;-4.456;2022-12-20T15:08:12;0.00;;;0.00;;
74177;SDS011;62540;48.456;-4.456;2022-12-20T15:10:48;0.50;;;0.00;;
74177;SDS011;62540;48.456;-4.456;2022-12-20T15:13:28;0.50;;;0.50;;
74177;SDS011;62540;48.456;-4.456;2022-12-20T15:16:17;1.75;;;0.00;;
74177;SDS011;62540;48.456;-4.456;2022-12-20T15:18:45;0.50;;;0.00;;
74177;SDS011;62540;48.456;-4.456;2022-12-20T15:23:55;0.75;;;0.00;;
74177;SDS011;62540;48.456;-4.456;2022-12-20T15:26:22;0.50;;;0.00;;
74177;SDS011;62540;48.456;-4.456;2022-12-20T15:28:50;0.00;;;0.00;;
74177;SDS011;62540;48.456;-4.456;2022-12-20T15:31:17;0.50;;;0.00;;
74177;SDS011;62540;48.456;-4.456;2022-12-20T15:33:44;0.00;;;0.00;;
74177;SDS011;62540;48.456;-4.456;2022-12-20T15:36:15;2.00;;;0.00;;
74177;SDS011;62540;48.456;-4.456;2022-12-20T15:38:42;0.50;;;0.00;;
74177;SDS011;62540;48.456;-4.456;2022-12-20T15:41:12;0.50;;;0.50;;
74177;SDS011;62540;48.456;-4.456;2022-12-20T15:43:42;0.00;;;0.00;;
74177;SDS011;62540;48.456;-4.456;2022-12-20T15:46:09;0.00;;;0.00;;
74177;SDS011;62540;48.456;-4.456;2022-12-20T15:48:34;0.00;;;0.00;;
74177;SDS011;62540;48.456;-4.456;2022-12-20T15:51:00;2.00;;;1.00;;
74177;SDS011;62540;48.456;-4.456;2022-12-20T15:53:27;1.25;;;0.50;;
74177;SDS011;62540;48.456;-4.456;2022-12-20T15:55:55;2.00;;;1.00;;
74177;SDS011;62540;48.456;-4.456;2022-12-20T15:58:21;2.25;;;1.00;;
74177;SDS011;62540;48.456;-4.456;2022-12-20T16:00:48;1.75;;;1.75;;
74177;SDS011;62540;48.456;-4.456;2022-12-20T16:03:14;0.50;;;0.50;;
74177;SDS011;62540;48.456;-4.456;2022-12-20T16:05:42;2.25;;;1.00;;
74177;SDS011;62540;48.456;-4.456;2022-12-20T16:08:07;2.00;;;0.00;;
74177;SDS011;62540;48.456;-4.456;2022-12-20T16:10:33;2.25;;;1.50;;
74177;SDS011;62540;48.456;-4.456;2022-12-20T16:12:59;3.00;;;3.00;;
74177;SDS011;62540;48.456;-4.456;2022-12-20T16:15:24;4.50;;;4.00;;
74177;SDS011;62540;48.456;-4.456;2022-12-20T16:17:50;3.00;;;3.00;;
74177;SDS011;62540;48.456;-4.456;2022-12-20T16:20:15;4.25;;;4.25;;
74177;SDS011;62540;48.456;-4.456;2022-12-20T16:22:41;4.00;;;3.25;;
74177;SDS011;62540;48.456;-4.456;2022-12-20T16:25:11;1.25;;;1.25;;
74177;SDS011;62540;48.456;-4.456;2022-12-20T16:27:48;7.50;;;6.25;;
74177;SDS011;62540;48.456;-4.456;2022-12-20T16:30:14;9.00;;;8.50;;
74177;SDS011;62540;48.456;-4.456;2022-12-20T16:32:39;6.75;;;6.25;;
74177;SDS011;62540;48.456;-4.456;2022-12-20T16:35:05;9.00;;;8.00;;
74177;SDS011;62540;48.456;-4.456;2022-12-20T16:37:34;9.50;;;8.50;;
74177;SDS011;62540;48.456;-4.456;2022-12-20T16:39:59;13.75;;;12.00;;
74177;SDS011;62540;48.456;-4.456;2022-12-20T16:42:25;20.25;;;17.75;;
74177;SDS011;62540;48.456;-4.456;2022-12-20T16:44:51;15.75;;;14.25;;
74177;SDS011;62540;48.456;-4.456;2022-12-20T16:47:17;10.00;;;9.25;;
74177;SDS011;62540;48.456;-4.456;2022-12-20T16:49:43;10.75;;;10.50;;